Time;durP1;ratioP1;P1;durP2;ratioP2;P2;SDS_P1;SDS_P2;PMS_P1;PMS_P2;Temp;Humidity;BMP_temperature;BMP_pressure;BME280_temperature;BME280_humidity;BME280_pressure;Samples;Min_cycle;Max_cycle;Signal;HPM_P1;HPM_P2
2021/12/31 00:01:12;;;;;;;58.63;24.48;;;;;;;-1.22;100.00;98599.50;5154134;27;20139;-62
2021/12/31 00:03:38;;;;;;;55.25;22.88;;;;;;;-1.19;100.00;98588.94;5153928;27;20133;-62
2021/12/31 00:06:05;;;;;;;57.10;23.95;;;;;;;-1.12;100.00;98598.50;5153812;27;20141;-62
2021/12/31 00:08:32;;;;;;;56.53;24.30;;;;;;;-1.10;100.00;98597.09;5153652;27;20043;-63
2021/12/31 00:11:01;;;;;;;50.03;22.98;;;;;;;-1.13;100.00;98596.88;5153804;27;20126;-62
2021/12/31 00:13:27;;;;;;;59.72;25.15;;;;;;;-1.06;100.00;98594.59;5153696;27;20504;-62
2021/12/31 00:15:53;;;;;;;51.75;23.65;;;;;;;-1.06;100.00;98594.59;5153837;27;20057;-62
2021/12/31 00:18:20;;;;;;;61.38;25.42;;;;;;;-1.08;100.00;98591.41;5153479;27;20420;-62
2021/12/31 00:20:46;;;;;;;57.33;24.35;;;;;;;-1.08;100.00;98594.09;5153517;27;20086;-63
2021/12/31 00:23:15;;;;;;;53.65;24.30;;;;;;;-1.06;100.00;98595.41;5153370;27;20062;-63
2021/12/31 00:25:43;;;;;;;58.97;24.73;;;;;;;-0.99;100.00;98590.41;5153528;27;20133;-62
2021/12/31 00:28:11;;;;;;;59.42;24.42;;;;;;;-1.01;100.00;98589.91;5153741;27;20046;-63
2021/12/31 00:30:39;;;;;;;55.30;24.02;;;;;;;-1.00;100.00;98591.50;5153587;27;20046;-63
2021/12/31 00:33:06;;;;;;;52.95;23.38;;;;;;;-0.96;100.00;98589.00;5153504;27;20050;-62
2021/12/31 00:35:34;;;;;;;60.55;25.58;;;;;;;-0.90;100.00;98584.28;5153382;27;20104;-62
2021/12/31 00:38:00;;;;;;;53.22;24.27;;;;;;;-0.91;100.00;98580.00;5153341;27;20046;-63
2021/12/31 00:40:27;;;;;;;58.05;23.88;;;;;;;-0.87;100.00;98575.59;5153011;27;20051;-63
2021/12/31 00:42:54;;;;;;;59.15;23.73;;;;;;;-0.81;100.00;98567.13;5153472;27;20054;-63
2021/12/31 00:45:24;;;;;;;53.78;23.95;;;;;;;-0.77;100.00;98568.13;5152167;27;20051;-63
2021/12/31 00:47:51;;;;;;;59.17;25.48;;;;;;;-0.74;100.00;98572.06;5152556;27;20047;-62
2021/12/31 00:50:17;;;;;;;55.38;24.80;;;;;;;-0.73;100.00;98562.94;5152874;27;20138;-62
2021/12/31 00:52:44;;;;;;;56.38;24.55;;;;;;;-0.75;100.00;98579.34;5152695;27;20071;-63
2021/12/31 00:55:12;;;;;;;68.22;27.17;;;;;;;-0.73;100.00;98589.84;5153259;27;20046;-62
2021/12/31 00:57:38;;;;;;;56.25;25.10;;;;;;;-0.72;100.00;98586.03;5152894;27;20059;-63
2021/12/31 01:00:07;;;;;;;61.75;25.40;;;;;;;-0.64;100.00;98584.50;5153267;27;20098;-62
2021/12/31 01:02:34;;;;;;;60.05;25.42;;;;;;;-0.60;100.00;98580.09;5152664;27;20058;-62
2021/12/31 01:05:02;;;;;;;59.55;25.17;;;;;;;-0.56;100.00;98567.63;5153011;27;20075;-63
2021/12/31 01:07:28;;;;;;;61.00;25.58;;;;;;;-0.52;100.00;98569.41;5152557;27;20086;-63
2021/12/31 01:09:55;;;;;;;60.88;25.63;;;;;;;-0.53;100.00;98575.09;5153045;27;20047;-63
2021/12/31 01:12:23;;;;;;;60.20;25.10;;;;;;;-0.51;100.00;98564.81;5152509;27;20133;-63
2021/12/31 01:14:57;;;;;;;61.20;24.98;;;;;;;-0.44;100.00;98550.91;5152759;27;20053;-63
2021/12/31 01:17:40;;;;;;;69.25;25.33;;;;;;;-0.43;100.00;98550.63;5152518;27;20073;-63
2021/12/31 01:20:08;;;;;;;66.50;24.38;;;;;;;-0.43;100.00;98552.50;5152515;27;20047;-62
2021/12/31 01:22:35;;;;;;;66.97;26.35;;;;;;;-0.42;100.00;98552.19;5152700;27;20492;-63
2021/12/31 01:25:04;;;;;;;70.57;27.73;;;;;;;-0.41;100.00;98545.72;5152343;27;20046;-63
2021/12/31 01:27:30;;;;;;;71.57;27.48;;;;;;;-0.42;100.00;98543.34;5152625;27;20137;-63
2021/12/31 01:29:56;;;;;;;73.70;26.92;;;;;;;-0.43;100.00;98539.03;5152369;27;20053;-62
2021/12/31 01:32:24;;;;;;;69.68;27.85;;;;;;;-0.43;100.00;98533.66;5152364;27;20142;-62
2021/12/31 01:34:50;;;;;;;69.22;27.95;;;;;;;-0.40;100.00;98528.47;5152152;27;20046;-63
2021/12/31 01:37:17;;;;;;;62.40;25.92;;;;;;;-0.40;100.00;98536.53;5152482;27;20053;-62
2021/12/31 01:39:43;;;;;;;74.88;29.80;;;;;;;-0.37;100.00;98532.41;5152160;27;20051;-63
2021/12/31 01:42:13;;;;;;;81.93;30.13;;;;;;;-0.36;100.00;98526.75;5152118;27;20422;-62
2021/12/31 01:44:43;;;;;;;69.00;29.48;;;;;;;-0.31;100.00;98529.28;5152082;27;20068;-63
2021/12/31 01:47:12;;;;;;;74.07;27.33;;;;;;;-0.28;100.00;98520.59;5152334;27;20047;-63
2021/12/31 01:49:41;;;;;;;74.18;29.55;;;;;;;-0.32;100.00;98521.53;5151812;27;20055;-63
2021/12/31 01:52:09;;;;;;;74.72;29.13;;;;;;;-0.26;100.00;98510.31;5152001;27;20425;-63
2021/12/31 01:54:37;;;;;;;77.00;30.10;;;;;;;-0.21;100.00;98504.00;5152394;27;20054;-63
2021/12/31 01:57:06;;;;;;;74.28;27.20;;;;;;;-0.17;100.00;98506.84;5152029;27;20567;-63
2021/12/31 01:59:35;;;;;;;76.55;28.38;;;;;;;-0.16;100.00;98506.56;5152347;27;20143;-63
2021/12/31 02:02:04;;;;;;;73.93;28.00;;;;;;;-0.14;100.00;98495.47;5151686;27;20050;-63
2021/12/31 02:04:31;;;;;;;72.00;28.15;;;;;;;-0.16;100.00;98503.06;5151746;27;20553;-63
2021/12/31 02:06:58;;;;;;;80.47;30.73;;;;;;;-0.16;100.00;98500.38;5151732;27;20460;-63
2021/12/31 02:09:25;;;;;;;84.60;29.95;;;;;;;-0.19;100.00;98499.09;5151613;27;20046;-63
2021/12/31 02:11:54;;;;;;;83.88;29.55;;;;;;;-0.15;100.00;98485.81;5151750;27;20504;-63
2021/12/31 02:14:21;;;;;;;72.38;29.98;;;;;;;-0.14;100.00;98480.09;5151843;27;20047;-63
2021/12/31 02:16:47;;;;;;;83.90;27.98;;;;;;;-0.15;100.00;98475.81;5151795;27;20485;-63
2021/12/31 02:19:16;;;;;;;76.93;29.02;;;;;;;-0.08;100.00;98459.19;5151645;27;20054;-63
2021/12/31 02:21:44;;;;;;;83.82;29.60;;;;;;;-0.01;100.00;98463.03;5151941;27;20152;-63
2021/12/31 02:24:10;;;;;;;83.28;28.25;;;;;;;-0.01;100.00;98463.03;5151414;27;20050;-63
2021/12/31 02:26:37;;;;;;;83.10;27.55;;;;;;;0.01;100.00;98462.72;5151892;27;20103;-63
2021/12/31 02:29:03;;;;;;;104.47;31.65;;;;;;;0.01;100.00;98462.72;5151458;27;20052;-63
2021/12/31 02:31:30;;;;;;;77.80;29.33;;;;;;;0.03;100.00;98457.78;5151309;27;20501;-63
2021/12/31 02:33:56;;;;;;;85.50;30.48;;;;;;;0.07;100.00;98453.41;5151250;27;20050;-63
2021/12/31 02:36:23;;;;;;;89.82;29.58;;;;;;;0.10;100.00;98457.34;5151341;27;20059;-63
2021/12/31 02:38:50;;;;;;;101.95;31.35;;;;;;;0.09;100.00;98464.63;5151346;27;20050;-63
2021/12/31 02:41:16;;;;;;;104.43;31.35;;;;;;;0.05;100.00;98463.69;5151190;27;20050;-63
2021/12/31 02:43:43;;;;;;;86.00;30.80;;;;;;;0.10;100.00;98446.56;5151232;27;20074;-63
2021/12/31 02:46:09;;;;;;;95.32;30.70;;;;;;;0.11;100.00;98446.25;5151191;27;20466;-63
2021/12/31 02:48:35;;;;;;;89.68;31.80;;;;;;;0.12;100.00;98439.75;5151236;27;20047;-63
2021/12/31 02:51:03;;;;;;;87.95;31.33;;;;;;;0.14;100.00;98436.75;5151091;27;20090;-63
2021/12/31 02:53:35;;;;;;;106.40;30.73;;;;;;;0.11;100.00;98430.09;5151266;27;20051;-63
2021/12/31 02:56:06;;;;;;;85.20;29.15;;;;;;;0.16;100.00;98423.75;5151077;27;20046;-63
2021/12/31 02:58:33;;;;;;;75.78;28.83;;;;;;;0.19;100.00;98412.34;5151224;27;20046;-63
2021/12/31 03:01:00;;;;;;;83.13;29.48;;;;;;;0.20;100.00;98419.31;5151219;27;20050;-63
2021/12/31 03:03:29;;;;;;;85.70;29.70;;;;;;;0.23;100.00;98414.13;5151010;27;20057;-63
2021/12/31 03:05:55;;;;;;;92.68;31.38;;;;;;;0.26;100.00;98418.06;5151154;27;20460;-63
2021/12/31 03:08:25;;;;;;;81.22;29.55;;;;;;;0.27;100.00;98411.56;5153031;27;20050;-63
2021/12/31 03:10:53;;;;;;;83.75;30.55;;;;;;;0.24;100.00;98401.41;5154652;27;20046;-63
2021/12/31 03:13:22;;;;;;;89.05;30.73;;;;;;;0.28;100.00;98396.19;5154499;27;20221;-63
2021/12/31 03:15:50;;;;;;;84.43;30.17;;;;;;;0.31;100.00;98379.38;5155160;27;20103;-63
2021/12/31 03:18:18;;;;;;;85.70;29.33;;;;;;;0.36;100.00;98385.41;5154821;27;20047;-63
2021/12/31 03:20:57;;;;;;;88.47;30.33;;;;;;;0.41;100.00;98374.47;5154767;27;20046;-63
2021/12/31 03:23:24;;;;;;;82.03;30.15;;;;;;;0.41;100.00;98370.97;5154548;27;20456;-62
2021/12/31 03:25:50;;;;;;;84.05;29.90;;;;;;;0.42;100.00;98375.25;5154488;27;20051;-63
2021/12/31 03:28:17;;;;;;;83.95;28.00;;;;;;;0.51;100.00;98364.47;5154560;27;20050;-63
2021/12/31 03:30:44;;;;;;;82.45;29.20;;;;;;;0.55;100.00;98357.34;5154113;27;20517;-63
2021/12/31 03:33:10;;;;;;;78.40;28.02;;;;;;;0.47;100.00;98350.84;5154433;27;20072;-63
2021/12/31 03:35:36;;;;;;;99.70;30.90;;;;;;;0.43;100.00;98341.78;5154262;27;20054;-63
2021/12/31 03:38:03;;;;;;;86.30;29.73;;;;;;;0.50;100.00;98349.38;5154283;27;20050;-63
2021/12/31 03:40:29;;;;;;;82.55;29.77;;;;;;;0.52;100.00;98331.78;5153990;27;20509;-63
2021/12/31 03:42:55;;;;;;;77.85;29.70;;;;;;;0.52;100.00;98328.31;5154465;27;20110;-63
2021/12/31 03:45:22;;;;;;;80.93;27.73;;;;;;;0.45;100.00;98315.31;5153948;27;20054;-63
2021/12/31 03:47:49;;;;;;;95.82;30.27;;;;;;;0.51;100.00;98315.94;5154501;27;20061;-63
2021/12/31 03:50:15;;;;;;;92.30;30.50;;;;;;;0.59;100.00;98304.34;5153540;27;20051;-63
2021/12/31 03:52:41;;;;;;;86.70;29.60;;;;;;;0.61;100.00;98294.03;5154030;27;20099;-63
2021/12/31 03:55:10;;;;;;;84.18;30.48;;;;;;;0.63;100.00;98297.19;5153963;27;20060;-63
2021/12/31 03:57:36;;;;;;;84.95;30.73;;;;;;;0.58;100.00;98291.97;5153806;27;20051;-63
2021/12/31 04:00:04;;;;;;;85.97;30.17;;;;;;;0.61;100.00;98286.72;5154139;27;20042;-63
2021/12/31 04:02:30;;;;;;;102.35;28.65;;;;;;;0.60;100.00;98278.94;5153648;27;20061;-64
2021/12/31 04:04:57;;;;;;;92.60;28.75;;;;;;;0.64;100.00;98277.22;5153968;27;20504;-63
2021/12/31 04:07:24;;;;;;;83.13;29.67;;;;;;;0.67;100.00;98279.25;5153512;27;20544;-63
2021/12/31 04:09:50;;;;;;;82.00;29.38;;;;;;;0.74;100.00;98274.16;5154109;27;20099;-63
2021/12/31 04:12:16;;;;;;;77.97;29.25;;;;;;;0.77;100.00;98265.44;5153517;27;20043;-63
2021/12/31 04:14:43;;;;;;;81.63;29.13;;;;;;;0.76;100.00;98271.13;5153976;27;20057;-63
2021/12/31 04:17:09;;;;;;;83.32;28.52;;;;;;;0.84;100.00;98270.34;5153342;27;20050;-63
2021/12/31 04:19:35;;;;;;;80.25;28.27;;;;;;;0.84;100.00;98260.31;5152117;27;20057;-63
2021/12/31 04:22:03;;;;;;;86.50;29.77;;;;;;;0.84;100.00;98259.53;5153615;27;20096;-63
2021/12/31 04:24:50;;;;;;;87.55;30.65;;;;;;;0.85;100.00;98267.28;5153480;27;20134;-63
2021/12/31 04:27:16;;;;;;;89.13;29.98;;;;;;;0.88;100.00;98272.06;5153203;27;20062;-63
2021/12/31 04:29:49;;;;;;;94.53;29.52;;;;;;;0.87;100.00;98275.09;5153491;27;20042;-63
2021/12/31 04:32:15;;;;;;;81.60;29.67;;;;;;;0.93;100.00;98265.69;5153347;27;20042;-63
2021/12/31 04:34:41;;;;;;;72.50;26.77;;;;;;;0.93;100.00;98271.88;5153180;27;20055;-63
2021/12/31 04:37:08;;;;;;;92.85;28.80;;;;;;;0.95;100.00;98268.84;5153268;27;20050;-63
2021/12/31 04:39:35;;;;;;;69.97;26.95;;;;;;;0.89;100.00;98262.03;5152968;27;20049;-64
2021/12/31 04:42:02;;;;;;;100.80;28.73;;;;;;;0.81;100.00;98263.66;5153157;27;20051;-63
2021/12/31 04:44:28;;;;;;;72.53;26.98;;;;;;;0.92;100.00;98256.00;5153466;27;20481;-63
2021/12/31 04:46:54;;;;;;;85.72;26.85;;;;;;;0.98;100.00;98251.22;5153116;27;20054;-63
2021/12/31 04:49:21;;;;;;;85.78;28.25;;;;;;;1.01;100.00;98247.88;5152351;27;20072;-63
2021/12/31 04:51:47;;;;;;;74.13;27.92;;;;;;;1.07;100.00;98247.38;5152837;27;20535;-63
2021/12/31 04:54:16;;;;;;;79.00;27.05;;;;;;;1.09;100.00;98242.44;5152715;27;20082;-64
2021/12/31 04:56:43;;;;;;;64.45;25.85;;;;;;;1.10;100.00;98246.72;5152999;27;20081;-63
2021/12/31 04:59:09;;;;;;;69.20;25.83;;;;;;;1.12;100.00;98239.09;5153054;27;20433;-64
2021/12/31 05:01:36;;;;;;;67.55;25.98;;;;;;;1.22;100.00;98242.53;5152710;27;20042;-63
2021/12/31 05:04:03;;;;;;;81.32;26.00;;;;;;;1.22;100.00;98243.31;5152961;27;20053;-63
2021/12/31 05:06:29;;;;;;;73.30;24.90;;;;;;;1.21;100.00;98249.84;5152655;27;20047;-63
2021/12/31 05:08:56;;;;;;;77.68;25.27;;;;;;;1.30;100.00;98245.22;5131995;27;20087;-63
2021/12/31 05:11:23;;;;;;;73.60;25.85;;;;;;;1.33;100.00;98239.16;5132079;28;20062;-63
2021/12/31 05:13:49;;;;;;;78.15;26.25;;;;;;;1.35;100.00;98238.81;5131940;28;20082;-63
2021/12/31 05:16:15;;;;;;;69.00;26.13;;;;;;;1.27;100.00;98243.16;5131779;28;20084;-64
2021/12/31 05:18:42;;;;;;;86.32;25.80;;;;;;;1.32;100.00;98245.66;5134589;27;20055;-64
2021/12/31 05:21:08;;;;;;;78.97;24.30;;;;;;;1.41;100.00;98253.72;5131914;28;20048;-63
2021/12/31 05:23:34;;;;;;;95.65;25.98;;;;;;;1.43;100.00;98264.97;5131938;28;20054;-63
2021/12/31 05:26:00;;;;;;;71.60;25.92;;;;;;;1.44;100.00;98269.28;5132016;27;20066;-63
2021/12/31 05:28:27;;;;;;;66.30;25.27;;;;;;;1.49;100.00;98271.00;5131573;28;20047;-63
2021/12/31 05:30:54;;;;;;;92.53;26.50;;;;;;;1.49;100.00;98265.59;5146767;27;20062;-63
2021/12/31 05:33:20;;;;;;;69.65;26.05;;;;;;;1.51;100.00;98268.75;5152212;27;20053;-63
2021/12/31 05:35:46;;;;;;;196.68;27.20;;;;;;;1.51;100.00;98261.44;5152597;27;20047;-63
2021/12/31 05:38:12;;;;;;;74.55;25.10;;;;;;;1.51;100.00;98279.56;5152632;27;20425;-63
2021/12/31 05:40:38;;;;;;;69.70;25.35;;;;;;;1.55;100.00;98269.69;5151927;27;20053;-63
2021/12/31 05:43:05;;;;;;;50.92;21.48;;;;;;;2.49;100.00;98236.81;5151854;27;20050;-65
2021/12/31 05:45:32;;;;;;;53.78;22.17;;;;;;;3.26;100.00;98242.44;5152117;27;20051;-62
2021/12/31 05:47:58;;;;;;;47.55;21.08;;;;;;;3.61;100.00;98282.63;5152308;27;20051;-66
2021/12/31 05:50:28;;;;;;;54.88;21.95;;;;;;;4.17;100.00;98347.88;5151853;27;20047;-63
2021/12/31 05:52:55;;;;;;;72.13;22.38;;;;;;;5.04;100.00;98428.72;5139795;27;20080;-62
2021/12/31 05:55:21;;;;;;;68.40;21.50;;;;;;;5.34;100.00;98581.34;5131268;28;20096;-62
2021/12/31 05:57:47;;;;;;;55.25;21.98;;;;;;;6.44;100.00;98660.94;5123897;28;20058;-61
2021/12/31 06:00:15;;;;;;;58.25;23.60;;;;;;;7.02;100.00;98602.03;5114181;27;20074;-64
2021/12/31 06:02:42;;;;;;;55.30;23.40;;;;;;;5.86;100.00;98392.78;5131097;28;20069;-66
2021/12/31 06:05:09;;;;;;;76.57;25.25;;;;;;;4.94;100.00;98402.03;5130799;28;20051;-65
2021/12/31 06:07:49;;;;;;;72.07;25.52;;;;;;;4.27;100.00;98485.00;5211141;27;20131;-61
2021/12/31 06:10:16;;;;;;;56.45;23.92;;;;;;;3.89;100.00;98586.41;5189734;27;20042;-63
2021/12/31 06:12:43;;;;;;;82.80;28.20;;;;;;;3.67;100.00;98663.50;5189521;27;20152;-64
2021/12/31 06:15:10;;;;;;;76.47;27.92;;;;;;;3.45;100.00;98689.78;5188425;27;20057;-66
2021/12/31 06:17:37;;;;;;;161.20;30.42;;;;;;;3.22;100.00;98708.25;5189337;27;20054;-64
2021/12/31 06:20:05;;;;;;;63.28;25.83;;;;;;;2.97;100.00;98707.25;5189407;27;20042;-66
2021/12/31 06:22:31;;;;;;;75.88;26.75;;;;;;;2.92;100.00;98691.19;5189333;27;20488;-64
2021/12/31 06:24:58;;;;;;;71.15;26.83;;;;;;;2.92;100.00;98671.44;5189079;27;20057;-64
2021/12/31 06:27:25;;;;;;;89.25;27.20;;;;;;;2.86;100.00;98646.44;5189175;27;20496;-66
2021/12/31 06:29:51;;;;;;;72.53;26.77;;;;;;;2.79;100.00;98633.44;5189159;27;20046;-61
2021/12/31 06:32:17;;;;;;;87.40;28.65;;;;;;;2.77;100.00;98611.31;5189211;27;20042;-60
2021/12/31 06:34:43;;;;;;;84.65;27.52;;;;;;;2.79;100.00;98595.53;5188876;27;20050;-62
2021/12/31 06:37:09;;;;;;;72.85;25.55;;;;;;;2.72;100.00;98579.03;5185837;27;20563;-61
2021/12/31 06:39:37;;;;;;;76.65;26.15;;;;;;;2.76;100.00;98574.53;5182627;27;20496;-64
2021/12/31 06:42:07;;;;;;;63.08;25.08;;;;;;;2.75;100.00;98558.63;5185850;27;20453;-65
2021/12/31 06:44:34;;;;;;;74.78;25.40;;;;;;;2.76;100.00;98549.38;5199777;27;20042;-66
2021/12/31 06:47:00;;;;;;;68.60;25.55;;;;;;;2.69;100.00;98541.78;5210286;27;20060;-65
2021/12/31 06:49:26;;;;;;;62.47;24.65;;;;;;;2.64;100.00;98536.56;5209902;27;20101;-64
2021/12/31 06:51:52;;;;;;;83.80;24.92;;;;;;;2.60;100.00;98516.69;5210267;27;20056;-65
2021/12/31 06:54:19;;;;;;;68.72;25.55;;;;;;;2.58;100.00;98506.19;5210382;27;20050;-62
2021/12/31 06:56:45;;;;;;;92.70;26.33;;;;;;;2.52;100.00;98502.09;5210059;27;20136;-59
2021/12/31 06:59:12;;;;;;;80.82;25.48;;;;;;;2.47;100.00;98496.09;5210037;27;20174;-66
2021/12/31 07:01:38;;;;;;;80.18;26.52;;;;;;;2.47;100.00;98488.75;5209943;27;20053;-64
2021/12/31 07:04:05;;;;;;;75.30;24.15;;;;;;;2.52;100.00;98485.84;5198578;27;20049;-62
2021/12/31 07:06:31;;;;;;;86.75;24.73;;;;;;;2.54;100.00;98478.22;5188638;27;20048;-64
2021/12/31 07:08:57;;;;;;;138.23;28.80;;;;;;;2.47;100.00;98477.94;5188987;27;20052;-64
2021/12/31 07:11:23;;;;;;;73.00;25.15;;;;;;;2.52;100.00;98471.53;5188656;27;20045;-65
2021/12/31 07:13:50;;;;;;;74.15;24.70;;;;;;;2.56;100.00;98465.13;5188755;27;20052;-64
2021/12/31 07:16:17;;;;;;;60.90;23.00;;;;;;;2.58;100.00;98468.31;5188881;27;20366;-64
2021/12/31 07:18:43;;;;;;;51.60;21.38;;;;;;;2.61;100.00;98457.97;5177696;27;20088;-65
2021/12/31 07:21:09;;;;;;;50.47;23.35;;;;;;;2.74;100.00;98449.56;5174697;27;20522;-67
2021/12/31 07:23:36;;;;;;;52.35;22.13;;;;;;;2.77;100.00;98454.31;5174797;27;20053;-66
2021/12/31 07:26:02;;;;;;;61.40;22.45;;;;;;;2.78;100.00;98455.91;5174293;27;20054;-68
2021/12/31 07:28:28;;;;;;;58.88;21.92;;;;;;;2.76;100.00;98462.75;5174501;27;20572;-69
2021/12/31 07:30:55;;;;;;;45.53;21.90;;;;;;;2.78;100.00;98466.72;5174632;27;20054;-71
2021/12/31 07:33:24;;;;;;;45.55;21.30;;;;;;;2.80;100.00;98458.28;5174568;27;20473;-73
2021/12/31 07:35:52;;;;;;;46.90;20.10;;;;;;;2.90;100.00;98460.59;5174425;27;20054;-79
2021/12/31 07:38:20;;;;;;;47.10;20.50;;;;;;;3.01;100.00;98464.47;5174852;27;20057;-65
2021/12/31 07:40:48;;;;;;;50.60;19.98;;;;;;;3.07;100.00;98459.66;5174488;27;20052;-62
2021/12/31 07:43:15;;;;;;;48.47;21.77;;;;;;;3.05;100.00;98464.59;5174220;27;20053;-65
2021/12/31 07:45:42;;;;;;;57.70;22.67;;;;;;;3.01;100.00;98469.09;5174491;27;20552;-66
2021/12/31 07:48:08;;;;;;;54.17;22.67;;;;;;;2.96;100.00;98461.97;5174246;27;20535;-61
2021/12/31 07:50:36;;;;;;;49.55;21.00;;;;;;;2.95;100.00;98465.00;5174043;27;20042;-61
2021/12/31 07:53:02;;;;;;;47.97;21.58;;;;;;;2.94;100.00;98461.50;5173884;27;20118;-60
2021/12/31 07:55:29;;;;;;;56.15;21.73;;;;;;;2.88;100.00;98462.06;5174281;27;20074;-61
2021/12/31 07:57:55;;;;;;;54.85;23.38;;;;;;;2.86;100.00;98467.00;5166768;27;20419;-61
2021/12/31 08:00:21;;;;;;;52.35;21.48;;;;;;;2.82;100.00;98462.22;5152340;27;20157;-60
2021/12/31 08:02:48;;;;;;;55.83;22.25;;;;;;;2.90;100.00;98452.47;5191164;27;20057;-64
2021/12/31 08:05:15;;;;;;;54.83;22.10;;;;;;;2.97;100.00;98443.81;5184336;27;20132;-65
2021/12/31 08:07:42;;;;;;;59.92;22.42;;;;;;;2.98;100.00;98443.47;5173537;27;20046;-62
2021/12/31 08:10:09;;;;;;;60.53;23.35;;;;;;;2.91;100.00;98453.28;5184823;27;20053;-61
2021/12/31 08:12:35;;;;;;;74.88;26.52;;;;;;;2.90;100.00;98448.94;5193882;27;20423;-69
2021/12/31 08:15:02;;;;;;;48.78;21.88;;;;;;;2.91;100.00;98439.72;5193764;27;20535;-62
2021/12/31 08:17:28;;;;;;;64.93;24.83;;;;;;;2.91;100.00;98437.03;5194711;27;20045;-62
2021/12/31 08:19:54;;;;;;;89.63;26.23;;;;;;;2.93;100.00;98424.75;5173112;27;20057;-64
2021/12/31 08:22:22;;;;;;;76.25;25.48;;;;;;;2.98;100.00;98415.63;5169285;27;20050;-64
2021/12/31 08:24:50;;;;;;;56.50;22.95;;;;;;;3.04;100.00;98403.47;5172028;27;20133;-66
2021/12/31 08:27:16;;;;;;;60.13;24.40;;;;;;;3.13;100.00;98397.94;5194583;27;20046;-66
2021/12/31 08:29:42;;;;;;;63.35;23.67;;;;;;;3.27;100.00;98401.16;5192719;27;20057;-66
2021/12/31 08:32:09;;;;;;;57.92;23.08;;;;;;;3.20;100.00;98419.84;5194629;27;20050;-66
2021/12/31 08:34:35;;;;;;;58.67;23.48;;;;;;;3.09;100.00;98430.31;5192815;27;20046;-66
2021/12/31 08:37:02;;;;;;;65.07;23.88;;;;;;;3.15;100.00;98431.69;5192221;27;20504;-67
2021/12/31 08:39:28;;;;;;;68.05;24.30;;;;;;;3.14;100.00;98437.47;5193590;27;20042;-67
2021/12/31 08:41:55;;;;;;;66.88;23.05;;;;;;;3.11;100.00;98421.88;5194067;27;20049;-67
2021/12/31 08:44:21;;;;;;;67.38;23.85;;;;;;;3.13;100.00;98428.50;5193962;27;20042;-66
2021/12/31 08:46:48;;;;;;;62.05;20.45;;;;;;;3.10;100.00;98422.97;5193867;27;20101;-67
2021/12/31 08:49:15;;;;;;;56.80;22.65;;;;;;;3.10;100.00;98414.84;5192984;27;20052;-66
2021/12/31 08:51:41;;;;;;;73.68;24.17;;;;;;;3.14;100.00;98411.16;5192156;27;20050;-66
2021/12/31 08:54:07;;;;;;;70.00;24.17;;;;;;;3.12;100.00;98407.97;5176180;27;20500;-66
2021/12/31 08:56:34;;;;;;;62.47;23.60;;;;;;;3.10;100.00;98404.03;5173012;27;20095;-66
2021/12/31 08:59:03;;;;;;;68.72;23.13;;;;;;;3.12;100.00;98397.16;5174132;27;20443;-67
2021/12/31 09:01:29;;;;;;;65.50;23.83;;;;;;;3.13;100.00;98395.22;5172964;27;20042;-66
2021/12/31 09:03:55;;;;;;;66.60;22.90;;;;;;;3.17;100.00;98394.25;5172805;27;20050;-66
2021/12/31 09:06:21;;;;;;;59.05;23.17;;;;;;;3.22;100.00;98388.59;5174465;27;20092;-66
2021/12/31 09:08:48;;;;;;;58.35;19.98;;;;;;;3.57;100.00;98365.75;5184612;27;20047;-62
2021/12/31 09:11:15;;;;;;;66.13;23.30;;;;;;;3.46;100.00;98382.44;5183743;27;20060;-62
2021/12/31 09:13:42;;;;;;;57.75;24.30;;;;;;;3.37;100.00;98389.88;5174226;27;20098;-62
2021/12/31 09:16:09;;;;;;;59.17;23.00;;;;;;;3.31;100.00;98388.50;5172199;27;20057;-61
2021/12/31 09:18:36;;;;;;;58.58;22.98;;;;;;;3.28;100.00;98387.25;5172723;27;20047;-61
2021/12/31 09:21:03;;;;;;;65.07;23.25;;;;;;;3.25;100.00;98385.22;5173881;27;20049;-62
2021/12/31 09:23:29;;;;;;;55.58;21.92;;;;;;;3.27;100.00;98377.56;5173017;27;20136;-63
2021/12/31 09:25:55;;;;;;;58.13;22.13;;;;;;;3.29;100.00;98369.09;5172464;27;20420;-63
2021/12/31 09:28:22;;;;;;;58.53;21.42;;;;;;;3.29;100.00;98350.91;5172760;27;20057;-63
2021/12/31 09:30:49;;;;;;;52.08;20.77;;;;;;;3.32;100.00;98343.25;5172636;27;20050;-63
2021/12/31 09:33:16;;;;;;;59.00;22.38;;;;;;;3.32;100.00;98338.63;5172471;27;20140;-63
2021/12/31 09:35:42;;;;;;;52.65;19.95;;;;;;;3.27;100.00;98331.50;5172898;27;20078;-63
2021/12/31 09:38:09;;;;;;;49.67;20.63;;;;;;;3.30;100.00;98324.63;5172603;27;20050;-63
2021/12/31 09:40:35;;;;;;;51.10;20.00;;;;;;;3.27;100.00;98323.38;5172395;27;20144;-63
2021/12/31 09:43:04;;;;;;;50.38;19.92;;;;;;;3.29;100.00;98312.19;5172266;27;20042;-63
2021/12/31 09:45:33;;;;;;;52.65;20.42;;;;;;;3.25;100.00;98309.38;5172682;27;20500;-63
2021/12/31 09:47:59;;;;;;;47.08;19.80;;;;;;;3.25;100.00;98295.03;5172188;27;20140;-63
2021/12/31 09:50:27;;;;;;;49.45;19.55;;;;;;;3.29;100.00;98294.03;5172224;27;20043;-63
2021/12/31 09:52:54;;;;;;;48.88;20.15;;;;;;;3.30;100.00;98286.72;5172245;27;20094;-63
2021/12/31 09:55:38;;;;;;;45.05;18.63;;;;;;;3.28;100.00;98280.81;5172254;27;20058;-63
2021/12/31 09:58:04;;;;;;;45.47;17.90;;;;;;;3.28;100.00;98276.19;5172279;27;20056;-63
2021/12/31 10:00:31;;;;;;;69.03;20.85;;;;;;;3.30;100.00;98267.75;5172063;27;20052;-63
2021/12/31 10:03:13;;;;;;;54.53;21.33;;;;;;;3.27;100.00;98271.91;5172297;27;20524;-63
2021/12/31 10:05:44;;;;;;;51.22;19.85;;;;;;;3.24;100.00;98271.81;5169051;27;20061;-63
2021/12/31 10:08:14;;;;;;;48.45;19.02;;;;;;;3.24;100.00;98263.69;5172510;27;20046;-63
2021/12/31 10:10:41;;;;;;;48.60;21.33;;;;;;;3.24;100.00;98253.63;5171936;27;20073;-63
2021/12/31 10:13:08;;;;;;;49.53;18.25;;;;;;;3.34;100.00;98240.78;5172347;27;20050;-63
2021/12/31 10:15:39;;;;;;;52.45;20.42;;;;;;;3.35;100.00;98242.34;5171784;27;20504;-63
2021/12/31 10:18:10;;;;;;;51.45;17.65;;;;;;;3.40;100.00;98232.06;5171829;27;20495;-63
2021/12/31 10:20:48;;;;;;;38.30;17.27;;;;;;;3.39;100.00;98216.94;5172054;27;20419;-62
2021/12/31 10:23:16;;;;;;;44.45;18.27;;;;;;;3.47;100.00;98217.97;5171729;27;20141;-62
2021/12/31 10:25:42;;;;;;;49.65;18.65;;;;;;;3.52;100.00;98213.06;5171823;27;20053;-62
2021/12/31 10:28:11;;;;;;;49.55;17.77;;;;;;;3.61;100.00;98207.53;5171745;27;20130;-62
2021/12/31 10:30:37;;;;;;;41.88;17.63;;;;;;;3.65;100.00;98211.13;5171871;27;20046;-62
2021/12/31 10:33:04;;;;;;;38.13;16.75;;;;;;;3.69;100.00;98203.88;5171708;27;20053;-62
2021/12/31 10:35:38;;;;;;;41.00;17.30;;;;;;;3.68;100.00;98206.97;5171522;27;20050;-62
2021/12/31 10:38:06;;;;;;;37.72;15.68;;;;;;;3.70;100.00;98212.84;5171655;27;20090;-62
2021/12/31 10:40:34;;;;;;;34.42;15.35;;;;;;;3.73;100.00;98210.22;5171855;27;20122;-62
2021/12/31 10:43:10;;;;;;;33.08;15.85;;;;;;;3.75;100.00;98196.31;5171811;27;20046;-61
2021/12/31 10:45:37;;;;;;;40.47;15.85;;;;;;;3.74;100.00;98209.09;5171570;27;20057;-61
2021/12/31 10:48:08;;;;;;;39.40;16.15;;;;;;;3.77;100.00;98215.75;5171562;27;20050;-61
2021/12/31 10:50:35;;;;;;;35.97;16.30;;;;;;;3.74;100.00;98219.16;5171052;27;20050;-62
2021/12/31 10:53:08;;;;;;;32.20;15.30;;;;;;;3.71;100.00;98214.41;5172745;27;20073;-61
2021/12/31 10:55:39;;;;;;;34.50;15.57;;;;;;;3.74;100.00;98216.44;5175138;27;20420;-61
2021/12/31 10:58:07;;;;;;;33.50;16.60;;;;;;;3.74;100.00;98213.72;5175173;27;20050;-61
2021/12/31 11:00:35;;;;;;;39.50;15.57;;;;;;;3.76;100.00;98217.66;5174971;27;20201;-62
2021/12/31 11:03:02;;;;;;;33.28;16.05;;;;;;;3.78;100.00;98214.63;5175266;27;20058;-61
2021/12/31 11:05:29;;;;;;;34.67;17.40;;;;;;;3.79;100.00;98213.47;5175141;27;20053;-61
2021/12/31 11:08:00;;;;;;;35.08;18.27;;;;;;;3.73;100.00;98207.53;5174635;27;20046;-61
2021/12/31 11:10:28;;;;;;;34.67;18.15;;;;;;;3.70;100.00;98213.63;5175344;27;20451;-61
2021/12/31 11:12:56;;;;;;;37.00;17.70;;;;;;;3.75;100.00;98218.00;5174647;27;20054;-61
2021/12/31 11:15:22;;;;;;;35.13;18.70;;;;;;;3.75;100.00;98218.00;5175060;27;20074;-61